Time;durP1;ratioP1;P1;durP2;ratioP2;P2;SDS_P1;SDS_P2;PMS_P1;PMS_P2;Temp;Humidity;BMP_temperature;BMP_pressure;BME280_temperature;BME280_humidity;BME280_pressure;Samples;Min_cycle;Max_cycle;Signal;HPM_P1;HPM_P2
2021/06/02 00:05:15;;;;;;;7.40;4.20;;;17.10;99.90;;;;;;12381174;28;20053;-38
2021/06/02 00:11:17;;;;;;;8.45;4.38;;;17.20;99.90;;;;;;12386638;28;20808;-38
2021/06/02 00:17:18;;;;;;;10.98;4.55;;;17.30;99.90;;;;;;12381217;28;20050;-38
2021/06/02 00:23:21;;;;;;;8.02;4.97;;;17.40;99.90;;;;;;12414575;28;20409;-39
2021/06/02 00:29:34;;;;;;;8.77;4.80;;;17.30;99.90;;;;;;12433936;28;20053;-39
2021/06/02 00:35:38;;;;;;;5.90;4.27;;;17.00;99.90;;;;;;12431744;28;20057;-38
2021/06/02 00:41:41;;;;;;;7.07;4.65;;;16.80;99.90;;;;;;12417305;28;20136;-38
2021/06/02 00:47:44;;;;;;;5.93;4.43;;;16.90;99.90;;;;;;12383640;28;20053;-39
2021/06/02 00:53:46;;;;;;;7.65;4.00;;;16.70;99.90;;;;;;12380097;28;20050;-38
2021/06/02 01:00:03;;;;;;;8.15;4.50;;;16.70;99.90;;;;;;12380027;28;20054;-38
2021/06/02 01:06:07;;;;;;;12.20;4.47;;;16.80;99.90;;;;;;12436783;28;20074;-39
2021/06/02 01:12:09;;;;;;;10.30;4.13;;;16.90;99.90;;;;;;12427039;28;20571;-38
2021/06/02 01:18:13;;;;;;;7.10;3.80;;;16.70;99.90;;;;;;12428542;28;20051;-38
2021/06/02 01:24:15;;;;;;;5.05;3.80;;;16.70;99.90;;;;;;12430984;28;20045;-39
2021/06/02 01:30:21;;;;;;;10.50;4.32;;;16.80;99.90;;;;;;12435316;28;20102;-38
2021/06/02 01:37:02;;;;;;;9.85;3.70;;;16.80;99.90;;;;;;12431161;28;20046;-37
2021/06/02 01:43:41;;;;;;;12.45;3.60;;;16.70;99.90;;;;;;12431889;28;20041;-38
2021/06/02 01:50:01;;;;;;;7.25;3.55;;;16.60;99.90;;;;;;12431677;28;20060;-39
2021/06/02 01:56:21;;;;;;;4.30;2.88;;;16.50;99.90;;;;;;12443451;28;20062;-38
2021/06/02 02:02:47;;;;;;;6.40;2.85;;;16.50;99.90;;;;;;12419207;28;20555;-38
2021/06/02 02:09:19;;;;;;;5.38;3.00;;;16.60;99.90;;;;;;12390154;28;20077;-38
2021/06/02 02:15:46;;;;;;;5.43;3.10;;;16.80;99.90;;;;;;12370009;28;20058;-41
2021/06/02 02:21:59;;;;;;;8.85;3.08;;;16.80;99.90;;;;;;12381507;28;20360;-38
2021/06/02 02:28:19;;;;;;;9.93;3.70;;;16.70;99.90;;;;;;12387081;28;20107;-41
2021/06/02 02:35:01;;;;;;;6.13;3.40;;;16.60;99.90;;;;;;12385602;28;20898;-38
2021/06/02 02:41:18;;;;;;;8.43;3.80;;;16.40;99.90;;;;;;12390958;28;20116;-40
2021/06/02 02:47:35;;;;;;;14.70;3.90;;;16.20;99.90;;;;;;12387306;28;20442;-40
2021/06/02 02:53:55;;;;;;;7.47;3.35;;;16.00;99.90;;;;;;12389368;28;20087;-40
2021/06/02 03:00:03;;;;;;;10.05;3.90;;;15.90;99.90;;;;;;12384156;28;20058;-38
2021/06/02 03:06:23;;;;;;;10.07;3.70;;;15.40;99.90;;;;;;12380894;28;20569;-39
2021/06/02 03:12:49;;;;;;;6.53;3.63;;;15.40;99.90;;;;;;12389022;28;20073;-39
2021/06/02 03:18:59;;;;;;;10.07;3.78;;;14.90;99.90;;;;;;12389541;28;20111;-38
2021/06/02 03:25:18;;;;;;;7.25;3.63;;;15.00;99.90;;;;;;12389747;28;20181;-38
2021/06/02 03:31:41;;;;;;;8.23;3.63;;;15.10;99.90;;;;;;12385733;28;20089;-38
2021/06/02 03:38:20;;;;;;;8.50;4.00;;;15.10;99.90;;;;;;12388461;28;20812;-38
2021/06/02 03:44:50;;;;;;;11.63;4.30;;;15.20;99.90;;;;;;12379238;28;20111;-39
2021/06/02 03:51:16;;;;;;;7.13;3.45;;;15.10;99.90;;;;;;12389570;28;20057;-38
2021/06/02 03:57:33;;;;;;;12.32;3.72;;;15.10;99.90;;;;;;12385287;28;20054;-39
2021/06/02 04:04:08;;;;;;;6.00;3.33;;;15.10;99.90;;;;;;12376580;28;20153;-41
2021/06/02 04:10:13;;;;;;;6.90;3.17;;;15.20;99.90;;;;;;12387119;28;20133;-38
2021/06/02 04:16:19;;;;;;;14.15;3.95;;;15.10;99.90;;;;;;12379308;28;20058;-38
2021/06/02 04:22:23;;;;;;;10.93;3.70;;;15.20;99.90;;;;;;12387119;28;20149;-39
2021/06/02 04:28:26;;;;;;;12.88;3.67;;;15.20;99.90;;;;;;12379692;28;20078;-39
2021/06/02 04:34:29;;;;;;;10.98;3.72;;;15.20;99.90;;;;;;12372877;28;20161;-38
2021/06/02 04:40:31;;;;;;;10.52;4.10;;;15.30;99.90;;;;;;12377949;28;20050;-39
2021/06/02 04:46:33;;;;;;;9.10;3.92;;;15.40;99.90;;;;;;12381823;28;20046;-39
2021/06/02 04:53:07;;;;;;;6.07;3.65;;;15.50;99.90;;;;;;12383780;28;20050;-38
2021/06/02 04:59:45;;;;;;;5.57;3.63;;;15.70;99.90;;;;;;12375906;28;20050;-41
2021/06/02 05:06:06;;;;;;;9.52;3.85;;;15.90;99.90;;;;;;12383243;28;20548;-38
2021/06/02 05:12:07;;;;;;;9.38;4.32;;;16.00;99.90;;;;;;12377105;28;20062;-39
2021/06/02 05:18:58;;;;;;;9.25;4.43;;;16.10;99.90;;;;;;12384614;28;20080;-38
2021/06/02 05:25:45;;;;;;;9.20;4.55;;;16.30;99.90;;;;;;12391723;28;20411;-41
2021/06/02 05:31:59;;;;;;;7.50;4.95;;;16.40;99.90;;;;;;12395205;28;20095;-39
2021/06/02 05:38:19;;;;;;;7.57;4.70;;;16.40;99.90;;;;;;12397634;28;20993;-40
2021/06/02 05:44:54;;;;;;;7.95;4.65;;;16.50;99.90;;;;;;12398600;28;20123;-39
2021/06/02 05:51:16;;;;;;;8.23;4.53;;;16.70;99.90;;;;;;12395438;28;20046;-39
2021/06/02 05:57:57;;;;;;;7.55;5.20;;;16.90;99.90;;;;;;12394379;28;20062;-40
2021/06/02 06:04:31;;;;;;;5.97;4.00;;;17.10;99.90;;;;;;12388098;28;20045;-38
2021/06/02 06:11:06;;;;;;;8.18;4.30;;;17.30;99.90;;;;;;12391601;28;20888;-38
2021/06/02 06:17:33;;;;;;;5.93;3.38;;;17.50;99.90;;;;;;12394197;28;20054;-38
2021/06/02 06:23:43;;;;;;;5.13;3.00;;;17.60;99.90;;;;;;12396331;28;20046;-39
2021/06/02 06:30:00;;;;;;;7.57;3.78;;;17.70;99.90;;;;;;12393534;28;20053;-38
2021/06/02 06:36:04;;;;;;;6.80;3.10;;;17.80;99.90;;;;;;12393272;28;20050;-39
2021/06/02 06:42:07;;;;;;;8.57;3.58;;;17.80;99.90;;;;;;12398145;28;20058;-41
2021/06/02 06:48:20;;;;;;;6.32;3.20;;;17.70;99.90;;;;;;12390468;28;20746;-39
2021/06/02 06:54:23;;;;;;;4.60;2.70;;;17.70;99.90;;;;;;12387833;28;20144;-40
2021/06/02 07:00:26;;;;;;;6.25;2.97;;;17.70;99.90;;;;;;12384613;28;20048;-39
2021/06/02 07:06:29;;;;;;;4.25;3.00;;;17.80;99.90;;;;;;12387826;28;20050;-39
2021/06/02 07:12:32;;;;;;;5.73;3.00;;;18.10;99.90;;;;;;12387666;28;20046;-41
2021/06/02 07:18:35;;;;;;;6.22;3.17;;;18.20;99.90;;;;;;12389277;28;20313;-39
2021/06/02 07:24:37;;;;;;;5.45;2.67;;;18.20;99.90;;;;;;12387415;28;20342;-39
2021/06/02 07:30:40;;;;;;;7.65;3.05;;;18.30;99.90;;;;;;12382589;28;20050;-44
2021/06/02 07:36:42;;;;;;;4.55;2.83;;;18.50;99.90;;;;;;12385705;28;20042;-38
2021/06/02 07:42:43;;;;;;;8.15;3.10;;;18.50;99.90;;;;;;12383524;28;20450;-39
2021/06/02 07:48:45;;;;;;;4.55;3.17;;;18.50;99.90;;;;;;12386912;28;20057;-43
2021/06/02 07:54:47;;;;;;;6.13;3.25;;;18.70;99.90;;;;;;12390557;28;20062;-39
2021/06/02 08:00:49;;;;;;;5.25;3.10;;;18.80;99.90;;;;;;12384072;28;20128;-39
2021/06/02 08:06:51;;;;;;;5.28;3.17;;;18.90;99.90;;;;;;12389192;28;20168;-38
2021/06/02 08:12:53;;;;;;;5.35;3.03;;;19.10;99.90;;;;;;12383402;28;20096;-38
2021/06/02 08:18:55;;;;;;;7.88;3.08;;;19.20;99.90;;;;;;12385210;28;20747;-40
2021/06/02 08:24:57;;;;;;;9.15;3.17;;;19.50;99.90;;;;;;12388749;28;20141;-39
2021/06/02 08:30:59;;;;;;;6.60;3.45;;;19.60;99.90;;;;;;12387018;28;20484;-39
2021/06/02 08:37:01;;;;;;;7.00;3.05;;;19.90;99.90;;;;;;12391592;28;20077;-38
2021/06/02 08:43:03;;;;;;;6.45;3.05;;;20.30;99.90;;;;;;12385971;28;20099;-39
2021/06/02 08:49:05;;;;;;;9.48;3.58;;;20.50;99.90;;;;;;12386740;28;20067;-39
2021/06/02 08:55:13;;;;;;;5.25;3.42;;;20.70;99.90;;;;;;12383124;28;20092;-38
2021/06/02 09:01:15;;;;;;;5.10;2.83;;;20.80;99.90;;;;;;12377455;28;20169;-38
2021/06/02 09:07:17;;;;;;;11.68;3.80;;;21.10;99.90;;;;;;12376176;28;20056;-38
2021/06/02 09:13:23;;;;;;;10.27;3.20;;;21.20;99.90;;;;;;12379334;28;20053;-39
2021/06/02 09:19:37;;;;;;;8.88;3.92;;;21.50;99.90;;;;;;12381345;28;20257;-38
2021/06/02 09:25:39;;;;;;;7.82;3.22;;;21.90;99.90;;;;;;12378456;28;20442;-39
2021/06/02 09:31:43;;;;;;;7.70;3.60;;;21.90;99.90;;;;;;12386251;28;20336;-38
2021/06/02 09:37:52;;;;;;;5.30;3.00;;;22.00;99.90;;;;;;12380705;28;20046;-39
2021/06/02 09:43:56;;;;;;;8.10;3.80;;;22.20;99.90;;;;;;12381427;28;20153;-39
2021/06/02 09:49:58;;;;;;;7.05;3.58;;;22.50;99.90;;;;;;12378815;28;20050;-40
2021/06/02 09:56:00;;;;;;;6.47;3.72;;;22.30;99.90;;;;;;12370506;28;20054;-38
2021/06/02 10:02:02;;;;;;;9.57;3.75;;;22.50;99.90;;;;;;12373239;28;20062;-39
2021/06/02 10:08:05;;;;;;;7.90;3.70;;;22.30;99.90;;;;;;12378375;28;20169;-39
2021/06/02 10:14:11;;;;;;;;;;;22.50;99.90;;;;;;12374576;28;20711;-39
2021/06/02 10:20:13;;;;;;;7.63;3.85;;;22.80;99.90;;;;;;12379272;28;19971;-40
2021/06/02 10:26:17;;;;;;;9.07;3.80;;;22.80;99.90;;;;;;12386508;28;20056;-39
2021/06/02 10:32:21;;;;;;;9.65;3.63;;;23.10;99.90;;;;;;12378955;28;20473;-39
2021/06/02 10:38:28;;;;;;;7.65;3.80;;;23.00;99.90;;;;;;12388245;28;20045;-39
2021/06/02 10:44:37;;;;;;;6.75;3.80;;;23.00;99.90;;;;;;12386048;28;20133;-39
2021/06/02 10:50:41;;;;;;;6.88;4.18;;;23.00;99.90;;;;;;12380593;28;20065;-40
2021/06/02 10:56:54;;;;;;;;;;;23.50;99.90;;;;;;12386922;28;20046;-39
2021/06/02 11:03:22;;;;;;;9.98;3.70;;;23.80;99.90;;;;;;12377744;28;19937;-40
2021/06/02 11:09:24;;;;;;;5.72;3.60;;;24.50;99.90;;;;;;12382629;28;20091;-38
2021/06/02 11:15:35;;;;;;;6.68;3.83;;;25.00;99.90;;;;;;12380060;28;20060;-39
2021/06/02 11:21:53;;;;;;;5.05;3.72;;;24.80;99.90;;;;;;12381764;28;20446;-39
2021/06/02 11:27:55;;;;;;;5.95;3.50;;;25.50;99.90;;;;;;12386087;28;20152;-40
2021/06/02 11:34:24;;;;;;;7.22;3.22;;;25.30;99.90;;;;;;12388104;28;20058;-39
2021/06/02 11:40:26;;;;;;;7.97;3.28;;;25.10;99.90;;;;;;12386366;28;20112;-39
2021/06/02 11:46:28;;;;;;;13.93;4.00;;;25.30;99.90;;;;;;12433503;28;20590;-40
2021/06/02 11:52:30;;;;;;;4.93;3.83;;;25.40;99.90;;;;;;12410863;28;20046;-39
2021/06/02 11:58:32;;;;;;;7.25;3.90;;;25.50;99.90;;;;;;12389872;28;20050;-40
2021/06/02 12:04:34;;;;;;;5.13;3.00;;;26.60;99.90;;;;;;12426725;28;20959;-39
2021/06/02 12:10:40;;;;;;;4.90;2.72;;;26.20;99.90;;;;;;12430615;28;20048;-39
2021/06/02 12:16:41;;;;;;;;;;;25.90;99.90;;;;;;12389359;28;20165;-41
2021/06/02 12:22:44;;;;;;;3.70;2.47;;;25.80;99.90;;;;;;12385737;28;19995;-40
2021/06/02 12:28:46;;;;;;;5.90;2.70;;;25.80;99.90;;;;;;12383683;28;20091;-39
2021/06/02 12:34:48;;;;;;;4.82;2.30;;;25.60;99.90;;;;;;12387905;28;20491;-39
2021/06/02 12:40:51;;;;;;;5.20;2.20;;;;;;;;;;12381037;28;20057;-40
2021/06/02 12:47:01;;;;;;;4.70;2.40;;;26.80;99.90;;;;;;12385708;28;20046;-39
2021/06/02 12:53:04;;;;;;;5.10;2.13;;;26.70;99.90;;;;;;12381850;28;20133;-39
2021/06/02 12:59:06;;;;;;;4.65;2.67;;;26.70;99.90;;;;;;12384236;28;20046;-39
2021/06/02 13:05:08;;;;;;;5.83;2.30;;;26.60;99.90;;;;;;12369348;28;20543;-39
2021/06/02 13:11:11;;;;;;;5.85;2.20;;;27.10;97.90;;;;;;12387255;28;20046;-39
2021/06/02 13:17:13;;;;;;;4.57;2.30;;;27.50;98.80;;;;;;12385367;28;20042;-39
2021/06/02 13:23:18;;;;;;;5.80;1.97;;;27.30;97.80;;;;;;12380476;28;20042;-39
2021/06/02 13:29:20;;;;;;;5.80;2.30;;;27.70;99.90;;;;;;12380276;28;20107;-39
2021/06/02 13:35:22;;;;;;;9.30;2.70;;;28.50;98.70;;;;;;12385686;28;20054;-39
2021/06/02 13:41:26;;;;;;;5.83;3.20;;;27.60;97.90;;;;;;12386936;28;20137;-39
2021/06/02 13:47:32;;;;;;;7.18;2.72;;;27.60;99.90;;;;;;12388116;28;20544;-39
2021/06/02 13:53:34;;;;;;;6.22;2.70;;;26.80;98.90;;;;;;12383087;28;20116;-39
2021/06/02 13:59:44;;;;;;;5.23;3.07;;;26.20;99.90;;;;;;12392892;28;20551;-39
2021/06/02 14:05:46;;;;;;;5.97;2.80;;;25.70;99.90;;;;;;12392717;28;20050;-39
2021/06/02 14:11:49;;;;;;;6.57;2.77;;;25.60;99.90;;;;;;12381358;28;20495;-39
2021/06/02 14:17:51;;;;;;;3.65;2.38;;;25.60;99.90;;;;;;12386383;28;20062;-39
2021/06/02 14:23:55;;;;;;;6.47;2.55;;;25.60;99.90;;;;;;12385199;28;20053;-40
2021/06/02 14:29:57;;;;;;;;;;;25.50;99.90;;;;;;12390788;28;20428;-39
2021/06/02 14:35:59;;;;;;;4.85;2.60;;;25.30;99.90;;;;;;12388739;28;20273;-40
2021/06/02 14:42:01;;;;;;;8.20;2.70;;;25.10;99.90;;;;;;12389259;28;20037;-39
2021/06/02 14:48:03;;;;;;;4.25;2.13;;;24.90;99.90;;;;;;12389153;28;20141;-39
2021/06/02 14:54:05;;;;;;;4.90;2.50;;;24.90;99.90;;;;;;12388455;28;20093;-38
2021/06/02 15:00:08;;;;;;;4.00;2.35;;;25.00;99.90;;;;;;12383857;28;20095;-40
2021/06/02 15:06:10;;;;;;;5.80;2.50;;;25.30;99.90;;;;;;12386763;28;20145;-39
2021/06/02 15:12:14;;;;;;;4.70;2.30;;;25.40;99.90;;;;;;12385506;28;20054;-39
2021/06/02 15:18:16;;;;;;;4.47;2.33;;;25.70;99.90;;;;;;12380745;28;20073;-39
2021/06/02 15:24:21;;;;;;;5.38;1.90;;;25.80;99.90;;;;;;12388021;28;20045;-38
2021/06/02 15:30:32;;;;;;;3.65;2.10;;;25.60;99.90;;;;;;12382027;28;20121;-39
2021/06/02 15:36:34;;;;;;;2.85;1.45;;;25.50;99.90;;;;;;12387477;28;20543;-45
2021/06/02 15:42:43;;;;;;;8.85;1.90;;;25.70;99.50;;;;;;12386148;28;20042;-44
2021/06/02 15:48:44;;;;;;;5.80;1.90;;;25.40;98.70;;;;;;12386993;28;20149;-45
2021/06/02 15:54:52;;;;;;;3.75;1.92;;;25.10;99.80;;;;;;12390168;28;20062;-44
2021/06/02 16:00:55;;;;;;;3.42;1.80;;;25.00;99.90;;;;;;12382453;28;20099;-44
2021/06/02 16:06:57;;;;;;;3.70;1.92;;;24.80;99.90;;;;;;12386883;28;20854;-44
2021/06/02 16:13:00;;;;;;;5.55;1.85;;;24.80;99.90;;;;;;12385987;28;20072;-43
2021/06/02 16:19:04;;;;;;;5.10;1.70;;;24.80;99.90;;;;;;12383208;28;20038;-43
2021/06/02 16:25:07;;;;;;;5.20;2.00;;;24.80;99.90;;;;;;12383735;28;20161;-44
2021/06/02 16:31:09;;;;;;;7.38;1.80;;;24.90;99.90;;;;;;12386936;28;20161;-44
2021/06/02 16:37:14;;;;;;;5.45;1.92;;;25.00;99.90;;;;;;12382106;28;20061;-44
2021/06/02 16:43:16;;;;;;;5.25;2.00;;;25.00;99.90;;;;;;12385267;28;20078;-44
2021/06/02 16:49:18;;;;;;;4.50;1.80;;;25.00;99.90;;;;;;12382918;28;20144;-44
2021/06/02 16:55:25;;;;;;;3.83;1.80;;;25.10;99.90;;;;;;12380976;28;20065;-44
2021/06/02 17:01:28;;;;;;;3.45;1.98;;;25.30;99.40;;;;;;12375320;28;20062;-45
2021/06/02 17:07:34;;;;;;;4.82;1.90;;;26.00;99.90;;;;;;12387293;28;20049;-46
2021/06/02 17:13:36;;;;;;;4.45;1.80;;;26.40;99.90;;;;;;12382870;28;20073;-44
2021/06/02 17:19:38;;;;;;;3.95;2.00;;;26.90;96.80;;;;;;12390802;28;20596;-45
2021/06/02 17:25:40;;;;;;;3.17;1.75;;;26.80;97.90;;;;;;12398890;28;20477;-45
2021/06/02 17:31:43;;;;;;;4.23;1.93;;;26.60;95.00;;;;;;12401294;28;20057;-44
2021/06/02 17:37:46;;;;;;;4.07;1.73;;;26.40;95.80;;;;;;12392828;28;20149;-44
2021/06/02 17:43:48;;;;;;;2.55;1.63;;;26.00;99.60;;;;;;12394389;28;20066;-45
2021/06/02 17:49:53;;;;;;;2.73;1.63;;;25.60;95.80;;;;;;12391401;28;20141;-44
2021/06/02 17:55:57;;;;;;;2.83;1.63;;;25.40;97.80;;;;;;12389591;28;20099;-43
2021/06/02 18:02:17;;;;;;;5.05;1.77;;;25.30;98.40;;;;;;12393910;28;20045;-44
2021/06/02 18:08:23;;;;;;;2.50;1.73;;;25.10;99.90;;;;;;12389652;28;20133;-45
2021/06/02 18:14:25;;;;;;;4.88;1.85;;;25.00;99.90;;;;;;12394157;28;20058;-44
2021/06/02 18:20:33;;;;;;;6.15;2.20;;;24.70;99.90;;;;;;12392847;28;20041;-45
2021/06/02 18:26:42;;;;;;;3.88;2.10;;;24.40;99.90;;;;;;12391954;28;20152;-43
2021/06/02 18:32:44;;;;;;;8.95;2.10;;;24.00;99.90;;;;;;12389876;28;20091;-44
2021/06/02 18:38:47;;;;;;;9.13;2.17;;;23.70;99.90;;;;;;12393454;28;20888;-47
2021/06/02 18:44:50;;;;;;;4.78;1.95;;;23.50;99.90;;;;;;12387314;28;20076;-44
2021/06/02 18:50:52;;;;;;;5.60;2.13;;;23.20;99.90;;;;;;12388647;28;20070;-44
2021/06/02 18:56:55;;;;;;;6.68;2.50;;;23.10;99.90;;;;;;12383426;28;20435;-44
2021/06/02 19:02:57;;;;;;;3.67;2.28;;;23.00;99.90;;;;;;12383840;28;20050;-46
2021/06/02 19:08:59;;;;;;;6.47;2.22;;;22.80;99.90;;;;;;12387139;28;20053;-45
2021/06/02 19:15:02;;;;;;;4.80;2.25;;;22.70;99.90;;;;;;12382158;28;20112;-44
2021/06/02 19:21:05;;;;;;;2.78;1.88;;;22.40;99.90;;;;;;12384219;28;21644;-44
2021/06/02 19:27:09;;;;;;;3.80;2.40;;;22.30;99.90;;;;;;12385143;28;20054;-46
2021/06/02 19:33:10;;;;;;;3.72;2.10;;;22.10;99.90;;;;;;12385470;28;20058;-44
2021/06/02 19:39:12;;;;;;;5.43;2.13;;;21.90;99.90;;;;;;12391039;28;20050;-44
2021/06/02 19:45:14;;;;;;;3.55;2.05;;;21.70;99.90;;;;;;12387628;28;20077;-45
2021/06/02 19:51:16;;;;;;;5.45;2.20;;;21.50;99.90;;;;;;12388440;28;20054;-44
2021/06/02 19:57:21;;;;;;;3.17;2.00;;;21.40;99.90;;;;;;12390987;28;20085;-44
2021/06/02 20:03:23;;;;;;;3.35;2.28;;;21.10;99.90;;;;;;12384697;28;20054;-46
2021/06/02 20:09:25;;;;;;;4.95;2.35;;;21.00;99.90;;;;;;12385390;28;20050;-44
2021/06/02 20:15:27;;;;;;;5.35;2.55;;;21.10;99.90;;;;;;12385111;28;20062;-45
2021/06/02 20:21:29;;;;;;;9.50;2.30;;;21.00;99.90;;;;;;12387392;28;20438;-44
2021/06/02 20:27:31;;;;;;;4.25;2.60;;;20.90;99.90;;;;;;12386573;28;20058;-43
2021/06/02 20:33:32;;;;;;;4.07;2.25;;;20.90;99.90;;;;;;12387809;28;20050;-45
2021/06/02 20:39:34;;;;;;;4.05;2.78;;;20.80;99.90;;;;;;12386402;28;20050;-44
2021/06/02 20:45:37;;;;;;;6.20;2.50;;;20.60;99.90;;;;;;12386544;28;20407;-44
2021/06/02 20:51:39;;;;;;;4.40;2.20;;;20.50;99.90;;;;;;12383623;28;20168;-44
2021/06/02 20:57:41;;;;;;;4.03;2.10;;;20.50;99.90;;;;;;12387565;28;20506;-45
2021/06/02 21:03:43;;;;;;;7.20;2.63;;;20.60;99.90;;;;;;12389905;28;20092;-44
2021/06/02 21:09:47;;;;;;;5.03;2.10;;;20.60;99.90;;;;;;12387495;28;20108;-43
2021/06/02 21:15:48;;;;;;;5.40;2.25;;;20.60;99.90;;;;;;12383179;28;20108;-46
2021/06/02 21:21:51;;;;;;;3.20;2.20;;;20.70;99.90;;;;;;12386050;28;20050;-43
2021/06/02 21:27:53;;;;;;;4.78;2.35;;;20.70;99.90;;;;;;12384446;28;20653;-45
2021/06/02 21:33:59;;;;;;;6.95;2.20;;;20.70;99.90;;;;;;12381537;28;21081;-44
2021/06/02 21:40:02;;;;;;;7.32;2.25;;;20.70;99.90;;;;;;12386152;28;20467;-46
2021/06/02 21:46:05;;;;;;;6.40;2.17;;;20.70;99.90;;;;;;12383678;28;20120;-47
2021/06/02 21:52:07;;;;;;;4.05;2.20;;;20.70;99.90;;;;;;12384909;28;20054;-43
2021/06/02 21:58:09;;;;;;;4.13;2.22;;;20.70;99.90;;;;;;12385136;28;20484;-43
2021/06/02 22:04:11;;;;;;;5.40;2.30;;;20.60;99.90;;;;;;12379991;28;20042;-44
2021/06/02 22:10:14;;;;;;;3.13;2.05;;;20.50;99.90;;;;;;12386463;28;20095;-45
2021/06/02 22:16:16;;;;;;;4.05;2.03;;;20.40;99.90;;;;;;12393719;28;20061;-44
2021/06/02 22:22:18;;;;;;;7.63;2.47;;;20.40;99.90;;;;;;12390476;28;20054;-43
2021/06/02 22:28:20;;;;;;;5.03;2.40;;;20.40;99.90;;;;;;12389815;28;20049;-45
2021/06/02 22:34:21;;;;;;;3.38;2.10;;;20.40;99.90;;;;;;12398163;28;20099;-44
2021/06/02 22:40:23;;;;;;;3.95;1.85;;;20.40;99.90;;;;;;12390834;28;20052;-44
2021/06/02 22:46:25;;;;;;;4.72;2.20;;;20.40;99.90;;;;;;12388587;28;20053;-44
2021/06/02 22:52:29;;;;;;;7.20;2.35;;;20.20;99.90;;;;;;12387790;28;20065;-44
2021/06/02 22:58:31;;;;;;;5.93;2.20;;;20.10;99.90;;;;;;12390981;28;20062;-44
2021/06/02 23:04:33;;;;;;;5.55;2.30;;;20.00;99.90;;;;;;12386818;28;20076;-44
2021/06/02 23:10:36;;;;;;;11.65;2.35;;;19.90;99.90;;;;;;12386409;28;20464;-44
2021/06/02 23:16:38;;;;;;;4.78;2.00;;;19.80;99.90;;;;;;12390484;28;20158;-44
2021/06/02 23:22:40;;;;;;;3.08;1.92;;;19.80;99.90;;;;;;12394220;28;20154;-43
2021/06/02 23:28:42;;;;;;;4.70;2.55;;;19.70;99.90;;;;;;12388776;28;20104;-44
2021/06/02 23:34:43;;;;;;;5.70;2.45;;;19.70;99.90;;;;;;12427232;28;20056;-43
2021/06/02 23:40:45;;;;;;;5.13;2.03;;;19.60;99.90;;;;;;12425464;28;20491;-43
2021/06/02 23:46:47;;;;;;;5.07;2.28;;;19.50;99.90;;;;;;12390829;28;20058;-44
2021/06/02 23:52:50;;;;;;;4.53;2.10;;;19.50;99.90;;;;;;12390999;28;20220;-45
2021/06/02 23:58:52;;;;;;;5.75;2.47;;;19.50;99.90;;;;;;12389156;28;21590;-43
